sensor_id;sensor_type;location;lat;lon;timestamp;pressure;altitude;pressure_sealevel;temperature
19102;BMP280;9683;49.028;12.064;2023-05-10T00:01:01;96555.81;;;19.44
19102;BMP280;9683;49.028;12.064;2023-05-10T00:03:27;96557.38;;;19.45
19102;BMP280;9683;49.028;12.064;2023-05-10T00:05:54;96554.69;;;19.45
19102;BMP280;9683;49.028;12.064;2023-05-10T00:08:22;96550.88;;;19.46
19102;BMP280;9683;49.028;12.064;2023-05-10T00:10:49;96552.78;;;19.46
19102;BMP280;9683;49.028;12.064;2023-05-10T00:13:15;96539.34;;;19.41
19102;BMP280;9683;49.028;12.064;2023-05-10T00:15:42;96519.31;;;19.28
19102;BMP280;9683;49.028;12.064;2023-05-10T00:18:09;96554.88;;;19.49
19102;BMP280;9683;49.028;12.064;2023-05-10T00:20:35;96537.25;;;19.38
19102;BMP280;9683;49.028;12.064;2023-05-10T00:23:02;96529.03;;;19.29
19102;BMP280;9683;49.028;12.064;2023-05-10T00:25:30;96539.94;;;19.38
19102;BMP280;9683;49.028;12.064;2023-05-10T00:27:56;96538.94;;;19.34
19102;BMP280;9683;49.028;12.064;2023-05-10T00:30:23;96536.31;;;19.29
19102;BMP280;9683;49.028;12.064;2023-05-10T00:32:50;96526.53;;;19.19
19102;BMP280;9683;49.028;12.064;2023-05-10T00:35:17;96543.13;;;19.26
19102;BMP280;9683;49.028;12.064;2023-05-10T00:37:43;96519.88;;;19.11
19102;BMP280;9683;49.028;12.064;2023-05-10T00:40:11;96487.38;;;18.89
19102;BMP280;9683;49.028;12.064;2023-05-10T00:42:39;96539.69;;;19.20
19102;BMP280;9683;49.028;12.064;2023-05-10T00:45:06;96535.13;;;19.21
19102;BMP280;9683;49.028;12.064;2023-05-10T00:47:33;96537.09;;;19.15
19102;BMP280;9683;49.028;12.064;2023-05-10T00:50:01;96545.97;;;19.16
19102;BMP280;9683;49.028;12.064;2023-05-10T00:52:28;96535.78;;;19.13
19102;BMP280;9683;49.028;12.064;2023-05-10T00:54:54;96541.47;;;19.11
19102;BMP280;9683;49.028;12.064;2023-05-10T00:57:22;96538.78;;;19.11
19102;BMP280;9683;49.028;12.064;2023-05-10T00:59:50;96531.47;;;19.12
19102;BMP280;9683;49.028;12.064;2023-05-10T01:02:17;96535.28;;;19.11
19102;BMP280;9683;49.028;12.064;2023-05-10T01:04:43;96525.47;;;19.01
19102;BMP280;9683;49.028;12.064;2023-05-10T01:07:10;96535.59;;;19.09
19102;BMP280;9683;49.028;12.064;2023-05-10T01:09:37;96534.25;;;19.07
19102;BMP280;9683;49.028;12.064;2023-05-10T01:12:04;96527.03;;;19.02
19102;BMP280;9683;49.028;12.064;2023-05-10T01:14:33;96540.66;;;19.11
19102;BMP280;9683;49.028;12.064;2023-05-10T01:17:03;96543.38;;;19.11
19102;BMP280;9683;49.028;12.064;2023-05-10T01:19:31;96518.19;;;19.02
19102;BMP280;9683;49.028;12.064;2023-05-10T01:22:06;96508.63;;;18.91
19102;BMP280;9683;49.028;12.064;2023-05-10T01:24:59;96544.28;;;19.06
19102;BMP280;9683;49.028;12.064;2023-05-10T01:27:42;96543.75;;;19.04
19102;BMP280;9683;49.028;12.064;2023-05-10T01:30:44;96545.44;;;19.00
19102;BMP280;9683;49.028;12.064;2023-05-10T01:33:19;96555.72;;;18.98
19102;BMP280;9683;49.028;12.064;2023-05-10T01:35:51;96557.91;;;18.96
19102;BMP280;9683;49.028;12.064;2023-05-10T01:38:27;96549.00;;;18.96
19102;BMP280;9683;49.028;12.064;2023-05-10T01:41:04;96550.63;;;18.97
19102;BMP280;9683;49.028;12.064;2023-05-10T01:43:39;96550.09;;;18.95
19102;BMP280;9683;49.028;12.064;2023-05-10T01:46:12;96554.13;;;18.97
19102;BMP280;9683;49.028;12.064;2023-05-10T01:48:47;96542.41;;;18.88
19102;BMP280;9683;49.028;12.064;2023-05-10T01:51:18;96555.81;;;18.93
19102;BMP280;9683;49.028;12.064;2023-05-10T01:53:47;96546.38;;;18.91
19102;BMP280;9683;49.028;12.064;2023-05-10T01:56:15;96549.97;;;18.86
19102;BMP280;9683;49.028;12.064;2023-05-10T01:58:43;96553.19;;;18.88
19102;BMP280;9683;49.028;12.064;2023-05-10T02:01:12;96555.06;;;18.88
19102;BMP280;9683;49.028;12.064;2023-05-10T02:03:42;96544.09;;;18.84
19102;BMP280;9683;49.028;12.064;2023-05-10T02:06:10;96546.78;;;18.84
19102;BMP280;9683;49.028;12.064;2023-05-10T02:08:40;96549.47;;;18.84
19102;BMP280;9683;49.028;12.064;2023-05-10T02:11:07;96545.44;;;18.82
19102;BMP280;9683;49.028;12.064;2023-05-10T02:13:36;96550.34;;;18.80
19102;BMP280;9683;49.028;12.064;2023-05-10T02:16:05;96550.41;;;18.74
19102;BMP280;9683;49.028;12.064;2023-05-10T02:18:32;96549.13;;;18.72
19102;BMP280;9683;49.028;12.064;2023-05-10T02:21:01;96549.34;;;18.75
19102;BMP280;9683;49.028;12.064;2023-05-10T02:23:29;96553.41;;;18.73
19102;BMP280;9683;49.028;12.064;2023-05-10T02:25:57;96525.53;;;18.64
19102;BMP280;9683;49.028;12.064;2023-05-10T02:28:25;96545.31;;;18.73
19102;BMP280;9683;49.028;12.064;2023-05-10T02:30:53;96550.22;;;18.71
19102;BMP280;9683;49.028;12.064;2023-05-10T02:33:21;96546.72;;;18.70
19102;BMP280;9683;49.028;12.064;2023-05-10T02:35:50;96559.59;;;18.73
19102;BMP280;9683;49.028;12.064;2023-05-10T02:38:19;96551.28;;;18.70
19102;BMP280;9683;49.028;12.064;2023-05-10T02:40:47;96552.97;;;18.66
19102;BMP280;9683;49.028;12.064;2023-05-10T02:43:15;96555.75;;;18.61
19102;BMP280;9683;49.028;12.064;2023-05-10T02:45:43;96549.63;;;18.55
19102;BMP280;9683;49.028;12.064;2023-05-10T02:48:13;96552.63;;;18.54
19102;BMP280;9683;49.028;12.064;2023-05-10T02:50:42;96539.69;;;18.51
19102;BMP280;9683;49.028;12.064;2023-05-10T02:53:14;96545.66;;;18.48
19102;BMP280;9683;49.028;12.064;2023-05-10T02:55:44;96536.78;;;18.47
19102;BMP280;9683;49.028;12.064;2023-05-10T02:58:12;96538.81;;;18.37
19102;BMP280;9683;49.028;12.064;2023-05-10T03:00:39;96542.09;;;18.33
19102;BMP280;9683;49.028;12.064;2023-05-10T03:03:05;96545.38;;;18.30
19102;BMP280;9683;49.028;12.064;2023-05-10T03:05:32;96552.34;;;18.31
19102;BMP280;9683;49.028;12.064;2023-05-10T03:07:59;96549.66;;;18.31
19102;BMP280;9683;49.028;12.064;2023-05-10T03:10:29;96549.97;;;18.30
19102;BMP280;9683;49.028;12.064;2023-05-10T03:13:07;96548.84;;;18.31
19102;BMP280;9683;49.028;12.064;2023-05-10T03:15:42;96539.47;;;18.28
19102;BMP280;9683;49.028;12.064;2023-05-10T03:18:15;96504.56;;;18.00
19102;BMP280;9683;49.028;12.064;2023-05-10T03:20:48;96543.81;;;18.24
19102;BMP280;9683;49.028;12.064;2023-05-10T03:23:21;96544.09;;;18.23
19102;BMP280;9683;49.028;12.064;2023-05-10T03:25:50;96550.88;;;18.20
19102;BMP280;9683;49.028;12.064;2023-05-10T03:28:18;96543.94;;;18.14
19102;BMP280;9683;49.028;12.064;2023-05-10T03:30:46;96535.78;;;18.01
19102;BMP280;9683;49.028;12.064;2023-05-10T03:33:12;96556.75;;;18.04
19102;BMP280;9683;49.028;12.064;2023-05-10T03:35:39;96547.88;;;18.03
19102;BMP280;9683;49.028;12.064;2023-05-10T03:38:06;96550.84;;;18.02
19102;BMP280;9683;49.028;12.064;2023-05-10T03:40:32;96555.94;;;18.03
19102;BMP280;9683;49.028;12.064;2023-05-10T03:42:59;96561.59;;;18.02
19102;BMP280;9683;49.028;12.064;2023-05-10T03:45:27;96562.41;;;18.02
19102;BMP280;9683;49.028;12.064;2023-05-10T03:47:54;96563.00;;;17.99
19102;BMP280;9683;49.028;12.064;2023-05-10T03:50:21;96559.78;;;17.97
19102;BMP280;9683;49.028;12.064;2023-05-10T03:52:47;96534.69;;;17.78
19102;BMP280;9683;49.028;12.064;2023-05-10T03:55:14;96570.31;;;17.94
19102;BMP280;9683;49.028;12.064;2023-05-10T03:57:41;96575.69;;;17.94
19102;BMP280;9683;49.028;12.064;2023-05-10T04:00:09;96573.31;;;17.92
19102;BMP280;9683;49.028;12.064;2023-05-10T04:02:37;96563.19;;;17.84
19102;BMP280;9683;49.028;12.064;2023-05-10T04:05:04;96580.88;;;17.90
19102;BMP280;9683;49.028;12.064;2023-05-10T04:07:31;96580.38;;;17.88
19102;BMP280;9683;49.028;12.064;2023-05-10T04:09:58;96578.75;;;17.87
19102;BMP280;9683;49.028;12.064;2023-05-10T04:12:24;96573.66;;;17.85
19102;BMP280;9683;49.028;12.064;2023-05-10T04:14:51;96573.69;;;17.80
19102;BMP280;9683;49.028;12.064;2023-05-10T04:17:18;96584.78;;;17.79
19102;BMP280;9683;49.028;12.064;2023-05-10T04:19:45;96587.72;;;17.77
19102;BMP280;9683;49.028;12.064;2023-05-10T04:22:12;96583.72;;;17.75
19102;BMP280;9683;49.028;12.064;2023-05-10T04:24:39;96582.13;;;17.74
19102;BMP280;9683;49.028;12.064;2023-05-10T04:27:05;96585.38;;;17.71
19102;BMP280;9683;49.028;12.064;2023-05-10T04:29:32;96588.34;;;17.69
19102;BMP280;9683;49.028;12.064;2023-05-10T04:31:58;96589.66;;;17.72
19102;BMP280;9683;49.028;12.064;2023-05-10T04:34:25;96589.66;;;17.72
19102;BMP280;9683;49.028;12.064;2023-05-10T04:36:53;96594.50;;;17.75
19102;BMP280;9683;49.028;12.064;2023-05-10T04:39:19;96600.16;;;17.73
19102;BMP280;9683;49.028;12.064;2023-05-10T04:41:46;96590.78;;;17.71
19102;BMP280;9683;49.028;12.064;2023-05-10T04:44:12;96594.28;;;17.71
19102;BMP280;9683;49.028;12.064;2023-05-10T04:46:39;96597.00;;;17.66
19102;BMP280;9683;49.028;12.064;2023-05-10T04:49:05;96590.28;;;17.64
19102;BMP280;9683;49.028;12.064;2023-05-10T04:51:32;96598.38;;;17.64
19102;BMP280;9683;49.028;12.064;2023-05-10T04:54:00;96596.78;;;17.63
19102;BMP280;9683;49.028;12.064;2023-05-10T04:56:27;96601.38;;;17.57
19102;BMP280;9683;49.028;12.064;2023-05-10T04:58:53;96593.34;;;17.52
19102;BMP280;9683;49.028;12.064;2023-05-10T05:01:20;96604.94;;;17.48
19102;BMP280;9683;49.028;12.064;2023-05-10T05:03:48;96600.72;;;17.41
19102;BMP280;9683;49.028;12.064;2023-05-10T05:06:15;96604.97;;;17.42
19102;BMP280;9683;49.028;12.064;2023-05-10T05:08:41;96616.63;;;17.38
19102;BMP280;9683;49.028;12.064;2023-05-10T05:11:09;96623.59;;;17.39
19102;BMP280;9683;49.028;12.064;2023-05-10T05:13:36;96617.16;;;17.35
19102;BMP280;9683;49.028;12.064;2023-05-10T05:16:03;96617.41;;;17.38
19102;BMP280;9683;49.028;12.064;2023-05-10T05:18:30;96629.81;;;17.34
19102;BMP280;9683;49.028;12.064;2023-05-10T05:20:56;96630.66;;;17.30
19102;BMP280;9683;49.028;12.064;2023-05-10T05:23:23;96630.66;;;17.30
19102;BMP280;9683;49.028;12.064;2023-05-10T05:25:51;96601.78;;;17.12
19102;BMP280;9683;49.028;12.064;2023-05-10T05:28:19;96642.50;;;17.29
19102;BMP280;9683;49.028;12.064;2023-05-10T05:30:46;96645.22;;;17.24
19102;BMP280;9683;49.028;12.064;2023-05-10T05:33:13;96650.38;;;17.20
19102;BMP280;9683;49.028;12.064;2023-05-10T05:35:40;96652.03;;;17.16
19102;BMP280;9683;49.028;12.064;2023-05-10T05:38:08;96649.34;;;17.16
19102;BMP280;9683;49.028;12.064;2023-05-10T05:40:35;96649.34;;;17.16
19102;BMP280;9683;49.028;12.064;2023-05-10T05:43:02;96638.59;;;17.11
19102;BMP280;9683;49.028;12.064;2023-05-10T05:45:30;96649.84;;;17.18
19102;BMP280;9683;49.028;12.064;2023-05-10T05:47:56;96663.03;;;17.15
19102;BMP280;9683;49.028;12.064;2023-05-10T05:50:23;96666.31;;;17.12
19102;BMP280;9683;49.028;12.064;2023-05-10T05:52:50;96663.38;;;17.08
19102;BMP280;9683;49.028;12.064;2023-05-10T05:55:16;96669.81;;;17.07
19102;BMP280;9683;49.028;12.064;2023-05-10T05:57:43;96669.00;;;17.12
19102;BMP280;9683;49.028;12.064;2023-05-10T06:00:10;96664.09;;;17.19
19102;BMP280;9683;49.028;12.064;2023-05-10T06:02:38;96663.28;;;17.18
19102;BMP280;9683;49.028;12.064;2023-05-10T06:05:06;96669.22;;;17.15
19102;BMP280;9683;49.028;12.064;2023-05-10T06:07:32;96667.31;;;17.21
19102;BMP280;9683;49.028;12.064;2023-05-10T06:09:59;96677.78;;;17.22
19102;BMP280;9683;49.028;12.064;2023-05-10T06:12:26;96678.88;;;17.21
19102;BMP280;9683;49.028;12.064;2023-05-10T06:14:52;96674.59;;;17.20
19102;BMP280;9683;49.028;12.064;2023-05-10T06:17:19;96679.97;;;17.20
19102;BMP280;9683;49.028;12.064;2023-05-10T06:19:48;96677.28;;;17.20
19102;BMP280;9683;49.028;12.064;2023-05-10T06:22:15;96686.66;;;17.23
19102;BMP280;9683;49.028;12.064;2023-05-10T06:24:41;96691.47;;;17.26
19102;BMP280;9683;49.028;12.064;2023-05-10T06:27:09;96688.78;;;17.26
19102;BMP280;9683;49.028;12.064;2023-05-10T06:29:35;96691.19;;;17.27
19102;BMP280;9683;49.028;12.064;2023-05-10T06:32:02;96697.63;;;17.31
19102;BMP280;9683;49.028;12.064;2023-05-10T06:34:28;96694.66;;;17.33
19102;BMP280;9683;49.028;12.064;2023-05-10T06:36:56;96698.94;;;17.34
19102;BMP280;9683;49.028;12.064;2023-05-10T06:39:23;96705.19;;;17.29
19102;BMP280;9683;49.028;12.064;2023-05-10T06:41:50;96702.50;;;17.29
19102;BMP280;9683;49.028;12.064;2023-05-10T06:44:17;96711.88;;;17.32
19102;BMP280;9683;49.028;12.064;2023-05-10T06:46:44;96709.19;;;17.32
19102;BMP280;9683;49.028;12.064;2023-05-10T06:49:10;96698.94;;;17.34
19102;BMP280;9683;49.028;12.064;2023-05-10T06:51:37;96694.97;;;17.26
19102;BMP280;9683;49.028;12.064;2023-05-10T06:54:05;96667.66;;;17.09
19102;BMP280;9683;49.028;12.064;2023-05-10T06:56:32;96711.28;;;17.40
19102;BMP280;9683;49.028;12.064;2023-05-10T06:58:58;96715.84;;;17.45
19102;BMP280;9683;49.028;12.064;2023-05-10T07:01:25;96717.91;;;17.53
19102;BMP280;9683;49.028;12.064;2023-05-10T07:03:51;96716.84;;;17.54
19102;BMP280;9683;49.028;12.064;2023-05-10T07:06:21;96719.78;;;17.57
19102;BMP280;9683;49.028;12.064;2023-05-10T07:08:47;96722.72;;;17.56
19102;BMP280;9683;49.028;12.064;2023-05-10T07:11:15;96725.97;;;17.63
19102;BMP280;9683;49.028;12.064;2023-05-10T07:13:42;96726.22;;;17.61
19102;BMP280;9683;49.028;12.064;2023-05-10T07:16:10;96729.19;;;17.60
19102;BMP280;9683;49.028;12.064;2023-05-10T07:18:37;96727.59;;;17.59
19102;BMP280;9683;49.028;12.064;2023-05-10T07:21:03;96715.03;;;17.44
19102;BMP280;9683;49.028;12.064;2023-05-10T07:23:30;96734.56;;;17.60
19102;BMP280;9683;49.028;12.064;2023-05-10T07:25:57;96728.13;;;17.61
19102;BMP280;9683;49.028;12.064;2023-05-10T07:28:26;96748.19;;;17.73
19102;BMP280;9683;49.028;12.064;2023-05-10T07:30:52;96734.25;;;17.71
19102;BMP280;9683;49.028;12.064;2023-05-10T07:33:19;96745.75;;;17.77
19102;BMP280;9683;49.028;12.064;2023-05-10T07:35:45;96747.31;;;17.83
19102;BMP280;9683;49.028;12.064;2023-05-10T07:38:12;96740.78;;;17.89
19102;BMP280;9683;49.028;12.064;2023-05-10T07:40:39;96750.69;;;17.99
19102;BMP280;9683;49.028;12.064;2023-05-10T07:43:06;96754.16;;;18.04
19102;BMP280;9683;49.028;12.064;2023-05-10T07:45:34;96746.06;;;18.04
19102;BMP280;9683;49.028;12.064;2023-05-10T07:48:01;96753.31;;;18.09
19102;BMP280;9683;49.028;12.064;2023-05-10T07:50:28;96757.31;;;18.11
19102;BMP280;9683;49.028;12.064;2023-05-10T07:52:54;96755.66;;;18.15
19102;BMP280;9683;49.028;12.064;2023-05-10T07:55:21;96753.72;;;18.21
19102;BMP280;9683;49.028;12.064;2023-05-10T07:57:48;96749.38;;;18.25
19102;BMP280;9683;49.028;12.064;2023-05-10T08:00:17;96746.72;;;18.20
19102;BMP280;9683;49.028;12.064;2023-05-10T08:02:46;96765.19;;;18.31
19102;BMP280;9683;49.028;12.064;2023-05-10T08:05:13;96752.03;;;18.30
19102;BMP280;9683;49.028;12.064;2023-05-10T08:07:39;96750.59;;;18.38
19102;BMP280;9683;49.028;12.064;2023-05-10T08:10:08;96762.38;;;18.47
19102;BMP280;9683;49.028;12.064;2023-05-10T08:12:35;96759.94;;;18.45
19102;BMP280;9683;49.028;12.064;2023-05-10T08:15:02;96769.66;;;18.46
19102;BMP280;9683;49.028;12.064;2023-05-10T08:17:28;96769.34;;;18.48
19102;BMP280;9683;49.028;12.064;2023-05-10T08:19:56;96767.97;;;18.50
19102;BMP280;9683;49.028;12.064;2023-05-10T08:22:23;96768.25;;;18.49
19102;BMP280;9683;49.028;12.064;2023-05-10T08:24:49;96763.66;;;18.54
19102;BMP280;9683;49.028;12.064;2023-05-10T08:27:16;96769.28;;;18.58
19102;BMP280;9683;49.028;12.064;2023-05-10T08:29:43;96766.00;;;18.61
19102;BMP280;9683;49.028;12.064;2023-05-10T08:32:09;96770.53;;;18.65
19102;BMP280;9683;49.028;12.064;2023-05-10T08:34:36;96773.75;;;18.67
19102;BMP280;9683;49.028;12.064;2023-05-10T08:37:04;96771.78;;;18.73
19102;BMP280;9683;49.028;12.064;2023-05-10T08:39:34;96755.69;;;18.68
19102;BMP280;9683;49.028;12.064;2023-05-10T08:42:03;96773.00;;;18.86
19102;BMP280;9683;49.028;12.064;2023-05-10T08:44:31;96779.50;;;18.85
19102;BMP280;9683;49.028;12.064;2023-05-10T08:46:59;96784.13;;;18.79
19102;BMP280;9683;49.028;12.064;2023-05-10T08:49:31;96772.53;;;18.78
19102;BMP280;9683;49.028;12.064;2023-05-10T08:51:59;96726.22;;;18.48
19102;BMP280;9683;49.028;12.064;2023-05-10T08:54:29;96770.16;;;18.77
19102;BMP280;9683;49.028;12.064;2023-05-10T08:56:57;96791.88;;;18.86
19102;BMP280;9683;49.028;12.064;2023-05-10T08:59:24;96790.28;;;18.85
19102;BMP280;9683;49.028;12.064;2023-05-10T09:01:51;96794.06;;;18.84
19102;BMP280;9683;49.028;12.064;2023-05-10T09:04:19;96798.22;;;18.76
19102;BMP280;9683;49.028;12.064;2023-05-10T09:06:47;96791.59;;;18.63
19102;BMP280;9683;49.028;12.064;2023-05-10T09:09:14;96794.94;;;18.55
19102;BMP280;9683;49.028;12.064;2023-05-10T09:11:42;96798.53;;;18.41
19102;BMP280;9683;49.028;12.064;2023-05-10T09:14:09;96804.72;;;18.12
19102;BMP280;9683;49.028;12.064;2023-05-10T09:16:37;96808.84;;;18.00
19102;BMP280;9683;49.028;12.064;2023-05-10T09:19:04;96802.44;;;17.96
19102;BMP280;9683;49.028;12.064;2023-05-10T09:21:31;96804.88;;;17.92
19102;BMP280;9683;49.028;12.064;2023-05-10T09:24:02;96801.38;;;17.92
19102;BMP280;9683;49.028;12.064;2023-05-10T09:26:29;96806.47;;;17.93
19102;BMP280;9683;49.028;12.064;2023-05-10T09:28:59;96786.38;;;17.80
19102;BMP280;9683;49.028;12.064;2023-05-10T09:31:43;96803.78;;;17.93
19102;BMP280;9683;49.028;12.064;2023-05-10T09:34:11;96810.31;;;17.87
19102;BMP280;9683;49.028;12.064;2023-05-10T09:36:51;96811.34;;;17.91
19102;BMP280;9683;49.028;12.064;2023-05-10T09:39:17;96802.19;;;17.92
19102;BMP280;9683;49.028;12.064;2023-05-10T09:41:44;96803.75;;;17.98
19102;BMP280;9683;49.028;12.064;2023-05-10T09:44:16;96810.16;;;18.02
19102;BMP280;9683;49.028;12.064;2023-05-10T09:46:48;96780.88;;;17.96
19102;BMP280;9683;49.028;12.064;2023-05-10T09:49:15;96796.44;;;18.04
19102;BMP280;9683;49.028;12.064;2023-05-10T09:51:42;96796.72;;;18.02
19102;BMP280;9683;49.028;12.064;2023-05-10T09:54:10;96801.66;;;17.90
19102;BMP280;9683;49.028;12.064;2023-05-10T09:56:37;96795.16;;;17.96
19102;BMP280;9683;49.028;12.064;2023-05-10T09:59:06;96796.50;;;17.94
19102;BMP280;9683;49.028;12.064;2023-05-10T10:01:34;96805.41;;;17.89
19102;BMP280;9683;49.028;12.064;2023-05-10T10:04:03;96806.31;;;17.79
19102;BMP280;9683;49.028;12.064;2023-05-10T10:06:35;96799.63;;;17.72
19102;BMP280;9683;49.028;12.064;2023-05-10T10:09:03;96787.06;;;17.57
19102;BMP280;9683;49.028;12.064;2023-05-10T10:11:30;96801.84;;;17.60
19102;BMP280;9683;49.028;12.064;2023-05-10T10:13:56;96801.31;;;17.63
19102;BMP280;9683;49.028;12.064;2023-05-10T10:16:24;96792.13;;;17.64
19102;BMP280;9683;49.028;12.064;2023-05-10T10:18:52;96805.50;;;17.79
19102;BMP280;9683;49.028;12.064;2023-05-10T10:21:19;96797.41;;;17.84
19102;BMP280;9683;49.028;12.064;2023-05-10T10:23:46;96803.56;;;17.84
19102;BMP280;9683;49.028;12.064;2023-05-10T10:26:13;96800.72;;;17.71
19102;BMP280;9683;49.028;12.064;2023-05-10T10:28:48;96791.03;;;17.70
19102;BMP280;9683;49.028;12.064;2023-05-10T10:31:23;96789.31;;;17.84
19102;BMP280;9683;49.028;12.064;2023-05-10T10:34:05;96796.50;;;17.94
19102;BMP280;9683;49.028;12.064;2023-05-10T10:36:33;96783.25;;;18.02
19102;BMP280;9683;49.028;12.064;2023-05-10T10:39:08;96787.50;;;18.08
19102;BMP280;9683;49.028;12.064;2023-05-10T10:41:36;96747.75;;;17.95
19102;BMP280;9683;49.028;12.064;2023-05-10T10:44:22;96767.69;;;18.23
19102;BMP280;9683;49.028;12.064;2023-05-10T10:47:00;96772.72;;;18.35
19102;BMP280;9683;49.028;12.064;2023-05-10T10:49:30;96763.78;;;18.39
19102;BMP280;9683;49.028;12.064;2023-05-10T10:52:14;96762.88;;;18.49
19102;BMP280;9683;49.028;12.064;2023-05-10T10:54:41;96766.06;;;18.56
19102;BMP280;9683;49.028;12.064;2023-05-10T10:57:11;96764.16;;;18.56
19102;BMP280;9683;49.028;12.064;2023-05-10T10:59:41;96760.16;;;18.49
19102;BMP280;9683;49.028;12.064;2023-05-10T11:02:09;96763.16;;;18.47
19102;BMP280;9683;49.028;12.064;2023-05-10T11:04:46;96763.13;;;18.52
19102;BMP280;9683;49.028;12.064;2023-05-10T11:07:19;96761.13;;;18.63
19102;BMP280;9683;49.028;12.064;2023-05-10T11:09:46;96756.41;;;18.73
19102;BMP280;9683;49.028;12.064;2023-05-10T11:12:13;96754.94;;;18.86
19102;BMP280;9683;49.028;12.064;2023-05-10T11:14:40;96750.72;;;18.99
19102;BMP280;9683;49.028;12.064;2023-05-10T11:17:22;96747.03;;;19.13
19102;BMP280;9683;49.028;12.064;2023-05-10T11:20:09;96756.09;;;19.22
19102;BMP280;9683;49.028;12.064;2023-05-10T11:22:49;96756.00;;;19.28
19102;BMP280;9683;49.028;12.064;2023-05-10T11:25:17;96755.44;;;19.31
19102;BMP280;9683;49.028;12.064;2023-05-10T11:27:43;96758.34;;;19.34
19102;BMP280;9683;49.028;12.064;2023-05-10T11:30:11;96762.00;;;19.24
19102;BMP280;9683;49.028;12.064;2023-05-10T11:32:39;96751.34;;;19.14
19102;BMP280;9683;49.028;12.064;2023-05-10T11:35:11;96770.72;;;19.16
19102;BMP280;9683;49.028;12.064;2023-05-10T11:37:39;96760.31;;;19.10
19102;BMP280;9683;49.028;12.064;2023-05-10T11:40:10;96759.72;;;19.13
19102;BMP280;9683;49.028;12.064;2023-05-10T11:42:37;96763.16;;;19.18
19102;BMP280;9683;49.028;12.064;2023-05-10T11:45:04;96765.13;;;19.13
19102;BMP280;9683;49.028;12.064;2023-05-10T11:47:31;96759.19;;;19.11
19102;BMP280;9683;49.028;12.064;2023-05-10T11:49:58;96756.34;;;19.02
19102;BMP280;9683;49.028;12.064;2023-05-10T11:52:26;96761.41;;;19.09
19102;BMP280;9683;49.028;12.064;2023-05-10T11:54:54;96757.31;;;19.11
19102;BMP280;9683;49.028;12.064;2023-05-10T11:57:26;96768.63;;;19.13
19102;BMP280;9683;49.028;12.064;2023-05-10T11:59:53;96758.25;;;19.20
19102;BMP280;9683;49.028;12.064;2023-05-10T12:02:20;96757.06;;;19.32
19102;BMP280;9683;49.028;12.064;2023-05-10T12:04:47;96758.53;;;19.43
19102;BMP280;9683;49.028;12.064;2023-05-10T12:07:13;96758.16;;;19.49
19102;BMP280;9683;49.028;12.064;2023-05-10T12:09:43;96732.38;;;19.38
19102;BMP280;9683;49.028;12.064;2023-05-10T12:12:10;96757.59;;;19.52
19102;BMP280;9683;49.028;12.064;2023-05-10T12:14:41;96759.50;;;19.52
19102;BMP280;9683;49.028;12.064;2023-05-10T12:17:11;96752.91;;;19.58
19102;BMP280;9683;49.028;12.064;2023-05-10T12:19:38;96754.13;;;19.65
19102;BMP280;9683;49.028;12.064;2023-05-10T12:22:05;96764.59;;;19.72
19102;BMP280;9683;49.028;12.064;2023-05-10T12:24:34;96754.59;;;19.73
19102;BMP280;9683;49.028;12.064;2023-05-10T12:27:06;96770.13;;;19.62
19102;BMP280;9683;49.028;12.064;2023-05-10T12:29:34;96775.75;;;19.47
19102;BMP280;9683;49.028;12.064;2023-05-10T12:32:01;96768.34;;;19.34
19102;BMP280;9683;49.028;12.064;2023-05-10T12:34:31;96769.38;;;19.19
19102;BMP280;9683;49.028;12.064;2023-05-10T12:36:58;96784.28;;;19.11
19102;BMP280;9683;49.028;12.064;2023-05-10T12:39:26;96775.38;;;19.11
19102;BMP280;9683;49.028;12.064;2023-05-10T12:42:04;96780.72;;;19.16
19102;BMP280;9683;49.028;12.064;2023-05-10T12:44:33;96780.72;;;19.16
19102;BMP280;9683;49.028;12.064;2023-05-10T12:47:00;96785.97;;;18.84
19102;BMP280;9683;49.028;12.064;2023-05-10T12:49:26;96796.22;;;18.58
19102;BMP280;9683;49.028;12.064;2023-05-10T12:51:53;96797.03;;;18.29
19102;BMP280;9683;49.028;12.064;2023-05-10T12:54:20;96807.06;;;18.19
19102;BMP280;9683;49.028;12.064;2023-05-10T12:56:47;96806.00;;;18.20
19102;BMP280;9683;49.028;12.064;2023-05-10T12:59:16;96803.56;;;18.18
19102;BMP280;9683;49.028;12.064;2023-05-10T13:01:44;96811.16;;;18.16
19102;BMP280;9683;49.028;12.064;2023-05-10T13:04:14;96800.03;;;17.89
19102;BMP280;9683;49.028;12.064;2023-05-10T13:06:41;96808.38;;;17.93
19102;BMP280;9683;49.028;12.064;2023-05-10T13:09:08;96821.03;;;17.92
19102;BMP280;9683;49.028;12.064;2023-05-10T13:11:35;96812.38;;;17.95
19102;BMP280;9683;49.028;12.064;2023-05-10T13:14:02;96811.28;;;18.01
19102;BMP280;9683;49.028;12.064;2023-05-10T13:16:29;96812.84;;;18.07
19102;BMP280;9683;49.028;12.064;2023-05-10T13:18:57;96807.91;;;18.14
19102;BMP280;9683;49.028;12.064;2023-05-10T13:21:24;96805.19;;;18.19
19102;BMP280;9683;49.028;12.064;2023-05-10T13:23:52;96783.13;;;18.17
19102;BMP280;9683;49.028;12.064;2023-05-10T13:26:19;96801.25;;;18.36
19102;BMP280;9683;49.028;12.064;2023-05-10T13:28:46;96810.13;;;18.41
19102;BMP280;9683;49.028;12.064;2023-05-10T13:31:14;96805.50;;;18.47
19102;BMP280;9683;49.028;12.064;2023-05-10T13:33:40;96804.63;;;18.51
19102;BMP280;9683;49.028;12.064;2023-05-10T13:36:08;96806.22;;;18.57
19102;BMP280;9683;49.028;12.064;2023-05-10T13:38:35;96804.03;;;18.59
19102;BMP280;9683;49.028;12.064;2023-05-10T13:41:01;96798.03;;;18.67
19102;BMP280;9683;49.028;12.064;2023-05-10T13:43:28;96789.34;;;18.70
19102;BMP280;9683;49.028;12.064;2023-05-10T13:45:55;96800.53;;;18.83
19102;BMP280;9683;49.028;12.064;2023-05-10T13:48:22;96800.72;;;18.91
19102;BMP280;9683;49.028;12.064;2023-05-10T13:50:48;96804.16;;;18.97
19102;BMP280;9683;49.028;12.064;2023-05-10T13:53:16;96800.31;;;19.03
19102;BMP280;9683;49.028;12.064;2023-05-10T13:55:43;96776.16;;;18.93
19102;BMP280;9683;49.028;12.064;2023-05-10T13:58:09;96782.22;;;19.03
19102;BMP280;9683;49.028;12.064;2023-05-10T14:00:36;96799.59;;;19.16
19102;BMP280;9683;49.028;12.064;2023-05-10T14:03:03;96796.03;;;19.20
19102;BMP280;9683;49.028;12.064;2023-05-10T14:05:30;96793.56;;;19.24
19102;BMP280;9683;49.028;12.064;2023-05-10T14:07:57;96802.41;;;19.30
19102;BMP280;9683;49.028;12.064;2023-05-10T14:10:24;96802.34;;;19.35
19102;BMP280;9683;49.028;12.064;2023-05-10T14:12:51;96802.03;;;19.36
19102;BMP280;9683;49.028;12.064;2023-05-10T14:15:17;96808.19;;;19.42